createdAt,value
2022-08-29T00:01:42.864Z,48.30
2022-08-29T00:04:11.870Z,48.00
2022-08-29T00:06:40.339Z,48.50
2022-08-29T00:09:08.735Z,49.40
2022-08-29T00:11:37.227Z,51.10
2022-08-29T00:14:20.969Z,51.50
2022-08-29T00:16:52.909Z,52.80
2022-08-29T00:19:22.497Z,52.60
2022-08-29T00:22:14.699Z,52.00
2022-08-29T00:24:48.526Z,52.50
2022-08-29T00:27:17.472Z,53.40
2022-08-29T00:29:47.664Z,54.50
2022-08-29T00:32:19.104Z,55.70
2022-08-29T00:34:47.590Z,55.30
2022-08-29T00:37:16.152Z,54.80
2022-08-29T00:39:45.229Z,54.40
2022-08-29T00:42:13.998Z,54.10
2022-08-29T00:44:42.827Z,54.60
2022-08-29T00:47:14.129Z,54.50
2022-08-29T00:49:46.155Z,54.80
2022-08-29T00:52:21.037Z,55.60
2022-08-29T00:54:54.998Z,54.50
2022-08-29T00:57:24.812Z,55.00
2022-08-29T00:59:53.487Z,54.70
2022-08-29T01:02:23.349Z,54.60
2022-08-29T01:04:51.677Z,54.50
2022-08-29T01:07:20.533Z,54.50
2022-08-29T01:09:48.963Z,54.10
2022-08-29T01:12:19.643Z,54.50
2022-08-29T01:14:52.382Z,54.20
2022-08-29T01:17:29.611Z,54.40
2022-08-29T01:20:01.207Z,53.10
2022-08-29T01:22:48.787Z,53.60
2022-08-29T01:25:23.588Z,54.20
2022-08-29T01:28:03.551Z,54.20
2022-08-29T01:30:32.502Z,54.30
2022-08-29T01:33:01.109Z,53.90
2022-08-29T01:35:32.058Z,52.90
2022-08-29T01:38:02.386Z,52.70
2022-08-29T01:40:36.426Z,53.50
2022-08-29T01:43:04.988Z,54.00
2022-08-29T01:45:36.240Z,54.10
2022-08-29T01:48:05.381Z,53.20
2022-08-29T01:50:34.095Z,53.10
2022-08-29T01:53:02.631Z,53.60
2022-08-29T01:55:32.871Z,53.90
2022-08-29T01:58:01.370Z,54.20
2022-08-29T02:00:30.294Z,56.00
2022-08-29T02:03:01.035Z,56.60
2022-08-29T02:05:30.442Z,57.30
2022-08-29T02:07:59.273Z,56.50
2022-08-29T02:10:28.136Z,56.50
2022-08-29T02:13:00.534Z,56.30
2022-08-29T02:15:29.275Z,56.70
2022-08-29T02:17:57.744Z,56.00
2022-08-29T02:20:26.147Z,55.40
2022-08-29T02:22:54.560Z,55.30
2022-08-29T02:25:40.371Z,56.40
2022-08-29T02:28:12.216Z,55.80
2022-08-29T02:30:40.824Z,55.30
2022-08-29T02:33:09.667Z,53.90
2022-08-29T02:35:42.781Z,53.70
2022-08-29T02:38:11.859Z,52.60
2022-08-29T02:40:41.083Z,52.20
2022-08-29T02:43:11.651Z,51.30
2022-08-29T02:45:43.584Z,50.70
2022-08-29T02:48:13.598Z,50.50
2022-08-29T02:50:43.176Z,49.60
2022-08-29T02:53:13.379Z,49.70
2022-08-29T02:55:41.912Z,50.00
2022-08-29T02:58:12.111Z,50.30
2022-08-29T03:00:41.415Z,50.70
2022-08-29T03:03:10.527Z,51.30
2022-08-29T03:05:39.039Z,51.60
2022-08-29T03:08:09.660Z,52.20
2022-08-29T03:10:38.709Z,52.20
2022-08-29T03:13:07.033Z,51.90
2022-08-29T03:15:36.811Z,51.90
2022-08-29T03:18:05.755Z,52.10
2022-08-29T03:20:35.902Z,53.30
2022-08-29T03:23:21.380Z,53.30
2022-08-29T03:25:56.812Z,53.20
2022-08-29T03:28:32.178Z,53.20
2022-08-29T03:31:12.814Z,52.60
2022-08-29T03:33:50.847Z,53.00
2022-08-29T03:36:35.506Z,52.70
2022-08-29T03:39:09.759Z,52.20
2022-08-29T03:42:06.090Z,51.50
2022-08-29T03:44:36.162Z,51.60
2022-08-29T03:47:19.024Z,52.90
2022-08-29T03:50:14.880Z,53.10
2022-08-29T03:53:09.597Z,53.10
2022-08-29T03:55:52.285Z,52.80
2022-08-29T03:58:23.828Z,52.70
2022-08-29T04:00:52.205Z,53.10
2022-08-29T04:03:25.040Z,52.80
2022-08-29T04:06:00.068Z,52.90
2022-08-29T04:08:28.664Z,52.70
2022-08-29T04:10:57.049Z,52.80
2022-08-29T04:13:26.116Z,52.80
2022-08-29T04:15:54.673Z,54.20
2022-08-29T04:18:24.315Z,55.10
2022-08-29T04:20:52.623Z,55.70
2022-08-29T04:23:21.007Z,55.60
2022-08-29T04:25:49.552Z,55.10
2022-08-29T04:28:21.007Z,55.10
2022-08-29T04:30:51.840Z,55.60
2022-08-29T04:33:24.311Z,56.00
2022-08-29T04:35:54.382Z,56.40
2022-08-29T04:38:23.229Z,56.40
2022-08-29T04:40:51.954Z,54.60
2022-08-29T04:43:20.536Z,54.00
2022-08-29T04:45:55.889Z,54.40
2022-08-29T04:48:26.012Z,54.40
2022-08-29T04:50:56.482Z,54.90
2022-08-29T04:53:26.258Z,55.60
2022-08-29T04:55:58.695Z,56.30
2022-08-29T04:59:36.851Z,57.00
2022-08-29T05:33:34.081Z,53.50
2022-08-29T05:36:02.387Z,53.80
2022-08-29T05:38:30.635Z,54.80
2022-08-29T05:40:58.802Z,56.20
2022-08-29T05:43:27.125Z,57.10
2022-08-29T05:46:02.976Z,57.40
2022-08-29T05:48:45.977Z,57.20
2022-08-29T05:52:11.718Z,57.10
2022-08-29T05:55:27.345Z,56.90
2022-08-29T05:58:10.247Z,55.70
2022-08-29T06:03:45.430Z,53.50
2022-08-29T06:06:29.347Z,51.10
2022-08-29T06:09:07.143Z,52.20
2022-08-29T06:12:14.018Z,52.60
2022-08-29T06:16:50.015Z,52.50
2022-08-29T06:20:19.972Z,51.60
2022-08-29T06:23:27.366Z,51.60
2022-08-29T06:26:17.293Z,50.40
2022-08-29T06:28:57.270Z,49.80
2022-08-29T06:31:33.122Z,48.80
2022-08-29T06:34:10.908Z,49.90
2022-08-29T06:36:54.493Z,48.50
2022-08-29T06:39:24.662Z,49.90
2022-08-29T06:41:53.573Z,47.80
2022-08-29T06:44:30.595Z,47.30
2022-08-29T06:47:00.405Z,46.10
2022-08-29T06:49:30.732Z,45.40
2022-08-29T06:52:09.394Z,46.60
2022-08-29T06:54:39.917Z,45.50
2022-08-29T06:57:10.569Z,46.60
2022-08-29T06:59:39.189Z,44.50
2022-08-29T07:02:08.174Z,45.50
2022-08-29T07:04:50.642Z,44.10
2022-08-29T07:07:54.267Z,43.10
2022-08-29T07:10:47.633Z,43.60
2022-08-29T07:14:06.885Z,43.50
2022-08-29T07:16:40.734Z,41.90
2022-08-29T07:19:11.773Z,40.80
2022-08-29T07:22:05.531Z,39.50
2022-08-29T07:24:53.750Z,40.00
2022-08-29T07:28:07.944Z,38.70
2022-08-29T07:31:19.494Z,40.30
2022-08-29T07:34:02.353Z,38.20
2022-08-29T07:36:58.269Z,36.80
2022-08-29T07:39:57.168Z,36.00
2022-08-29T07:42:40.970Z,36.50
2022-08-29T07:45:20.862Z,36.10
2022-08-29T07:47:49.733Z,36.10
2022-08-29T07:50:18.975Z,35.10
2022-08-29T07:52:57.534Z,34.00
2022-08-29T07:55:43.720Z,35.60
2022-08-29T07:58:28.168Z,35.00
2022-08-29T08:01:06.425Z,35.20
2022-08-29T08:03:53.530Z,35.80
2022-08-29T08:07:03.138Z,34.50
2022-08-29T08:10:03.037Z,35.10
2022-08-29T08:13:06.636Z,33.70
2022-08-29T08:16:13.920Z,35.40
2022-08-29T08:19:19.653Z,34.00
2022-08-29T08:21:57.999Z,34.10
2022-08-29T08:25:14.110Z,33.70
2022-08-29T08:31:18.347Z,33.20
2022-08-29T08:34:54.651Z,35.50
2022-08-29T08:38:08.562Z,35.70
2022-08-29T08:41:21.038Z,34.90
2022-08-29T08:47:05.087Z,33.60
2022-08-29T09:01:50.050Z,33.00
2022-08-29T09:05:18.490Z,34.40
2022-08-29T09:35:08.471Z,33.20
2022-08-29T09:37:38.121Z,32.80
2022-08-29T09:40:10.875Z,31.80
2022-08-29T09:42:43.230Z,33.10
2022-08-29T09:45:20.159Z,30.50
2022-08-29T09:47:48.450Z,30.50
2022-08-29T09:50:24.704Z,30.20
2022-08-29T09:52:55.173Z,30.00
2022-08-29T09:55:31.087Z,31.00
2022-08-29T09:58:04.244Z,30.00
2022-08-29T10:00:35.870Z,30.80
2022-08-29T10:03:06.707Z,30.40
2022-08-29T10:05:44.584Z,30.30
2022-08-29T10:08:28.582Z,31.30
2022-08-29T10:10:59.570Z,29.40
2022-08-29T10:13:37.625Z,29.10
2022-08-29T10:16:16.714Z,28.30
2022-08-29T10:18:48.715Z,29.40
2022-08-29T10:21:30.563Z,28.80
2022-08-29T10:24:54.293Z,28.10
2022-08-29T10:27:37.134Z,29.50
2022-08-29T10:30:13.007Z,28.30
2022-08-29T10:33:05.766Z,28.60
2022-08-29T10:35:40.321Z,28.70
2022-08-29T10:38:19.810Z,28.10
2022-08-29T10:40:52.457Z,29.20
2022-08-29T10:43:38.685Z,27.60
2022-08-29T10:46:34.905Z,27.90
2022-08-29T10:49:13.035Z,28.00
2022-08-29T10:51:49.752Z,26.50
2022-08-29T10:54:29.611Z,27.10
2022-08-29T10:56:58.807Z,27.70
2022-08-29T10:59:34.934Z,26.40
2022-08-29T11:02:09.786Z,25.70
2022-08-29T11:04:41.626Z,25.40
2022-08-29T11:07:16.236Z,25.10
2022-08-29T11:09:50.914Z,26.40
2022-08-29T11:12:22.692Z,25.10
2022-08-29T11:14:58.475Z,24.00
2022-08-29T11:17:32.382Z,25.20
2022-08-29T11:20:09.695Z,24.30
2022-08-29T11:22:45.502Z,23.60
2022-08-29T11:25:18.811Z,23.40
2022-08-29T11:27:54.996Z,25.00
2022-08-29T11:30:29.320Z,25.30
2022-08-29T11:33:10.508Z,22.70
2022-08-29T11:35:46.882Z,25.30
2022-08-29T11:38:51.549Z,23.70
2022-08-29T11:41:31.531Z,24.60
2022-08-29T11:44:14.287Z,23.60
2022-08-29T11:46:49.038Z,23.80
2022-08-29T11:49:34.121Z,22.80
2022-08-29T11:52:18.943Z,24.10
2022-08-29T11:55:09.853Z,23.10
2022-08-29T11:57:54.831Z,21.90
2022-08-29T12:00:48.151Z,23.10
2022-08-29T12:03:53.780Z,22.80
2022-08-29T12:06:42.559Z,23.60
2022-08-29T12:09:44.403Z,23.20
2022-08-29T12:12:19.388Z,23.00
2022-08-29T12:14:52.707Z,25.20
2022-08-29T12:18:01.510Z,23.20
2022-08-29T12:20:42.931Z,23.20
2022-08-29T12:23:31.506Z,23.30
2022-08-29T12:26:22.786Z,20.70
2022-08-29T12:28:59.387Z,20.80
2022-08-29T12:31:56.788Z,20.80
2022-08-29T12:34:49.894Z,21.60
2022-08-29T12:37:32.621Z,21.00
2022-08-29T12:40:18.910Z,20.60
2022-08-29T12:42:58.008Z,20.00
2022-08-29T12:45:30.447Z,20.30
2022-08-29T12:48:06.422Z,20.00
2022-08-29T12:50:37.720Z,21.10
2022-08-29T12:53:07.867Z,21.10
2022-08-29T12:55:42.058Z,18.40
2022-08-29T12:58:12.975Z,19.70
2022-08-29T13:00:43.645Z,19.50
2022-08-29T13:03:20.444Z,20.80
2022-08-29T13:05:49.880Z,20.40
2022-08-29T13:08:30.579Z,20.90
2022-08-29T13:11:02.025Z,22.30
2022-08-29T13:13:31.301Z,19.70
2022-08-29T13:16:02.797Z,21.70
2022-08-29T13:18:40.467Z,18.90
2022-08-29T13:21:24.603Z,19.00
2022-08-29T13:24:05.543Z,19.40
2022-08-29T13:26:34.960Z,17.80
2022-08-29T13:29:23.198Z,18.50
2022-08-29T13:32:10.439Z,20.90
2022-08-29T13:34:59.652Z,19.70
2022-08-29T13:37:32.025Z,19.30
2022-08-29T13:40:31.570Z,17.00
2022-08-29T13:43:03.102Z,18.20
2022-08-29T13:45:32.264Z,17.00
2022-08-29T13:48:14.562Z,15.80
2022-08-29T13:53:14.151Z,19.10
2022-08-29T13:55:44.871Z,16.80
2022-08-29T13:58:15.332Z,18.10
2022-08-29T14:00:44.625Z,18.70
2022-08-29T14:03:17.035Z,17.10
2022-08-29T14:05:46.009Z,17.80
2022-08-29T14:08:15.126Z,18.50
2022-08-29T14:10:45.562Z,17.80
2022-08-29T14:13:14.198Z,17.30
2022-08-29T14:15:42.795Z,18.00
2022-08-29T14:18:12.000Z,15.20
2022-08-29T14:20:40.422Z,17.60
2022-08-29T14:23:08.838Z,18.40
2022-08-29T14:25:40.336Z,16.00
2022-08-29T15:14:35.048Z,16.00
2022-08-29T15:17:25.753Z,16.80
2022-08-29T15:20:37.213Z,17.30
2022-08-29T16:05:22.263Z,17.60
2022-08-29T16:15:00.392Z,17.90
2022-08-29T16:18:02.243Z,17.30
2022-08-29T17:02:44.397Z,20.30
2022-08-29T17:24:50.475Z,20.70
2022-08-29T20:04:37.631Z,28.70
2022-08-29T21:04:38.831Z,36.70
2022-08-29T21:08:26.626Z,36.40
2022-08-29T21:12:34.235Z,37.30
2022-08-29T21:15:42.363Z,38.10
2022-08-29T21:23:39.441Z,39.20
2022-08-29T21:27:42.785Z,39.00
2022-08-29T21:31:22.524Z,37.20
2022-08-29T21:43:18.305Z,39.00
2022-08-29T21:47:17.942Z,38.60
2022-08-29T21:51:19.074Z,38.80
2022-08-29T21:58:38.529Z,40.50
2022-08-29T22:02:13.047Z,39.70
2022-08-29T22:06:08.445Z,38.70
2022-08-29T22:13:32.875Z,40.40
2022-08-29T22:16:56.101Z,39.60
2022-08-29T22:23:53.182Z,39.20
2022-08-29T22:27:15.181Z,40.00
2022-08-29T22:30:34.224Z,40.50
2022-08-29T22:33:50.878Z,40.00
2022-08-29T22:37:54.895Z,40.20
2022-08-29T22:41:12.955Z,40.60
2022-08-29T22:45:02.734Z,40.60
2022-08-29T22:48:16.569Z,40.10
2022-08-29T22:51:20.148Z,38.90
2022-08-29T22:57:33.480Z,36.00
2022-08-29T23:00:40.184Z,38.10
2022-08-29T23:03:56.740Z,38.80
2022-08-29T23:07:22.784Z,38.80
